Time;durP1;ratioP1;P1;durP2;ratioP2;P2;SDS_P1;SDS_P2;PMS_P1;PMS_P2;Temp;Humidity;BMP_temperature;BMP_pressure;BME280_temperature;BME280_humidity;BME280_pressure;Samples;Min_cycle;Max_cycle;Signal;HPM_P1;HPM_P2
2023/08/23 00:02:02;;;;;;;1288.63;999.90;;;26.50;99.90;;;;;;5096367;28;20024;-66
2023/08/23 00:04:34;;;;;;;998.30;903.22;;;26.50;99.90;;;;;;5096262;28;20083;-68
2023/08/23 00:07:02;;;;;;;1097.35;992.40;;;26.50;99.90;;;;;;5096063;28;20107;-68
2023/08/23 00:09:28;;;;;;;1059.18;958.00;;;26.60;99.90;;;;;;5096325;28;20107;-67
2023/08/23 00:11:55;;;;;;;937.67;847.83;;;26.70;99.90;;;;;;5096028;28;20034;-69
2023/08/23 00:14:21;;;;;;;923.75;835.72;;;26.70;99.90;;;;;;5095873;28;20056;-67
2023/08/23 00:16:48;;;;;;;879.00;795.22;;;26.80;99.90;;;;;;5096158;28;20535;-66
2023/08/23 00:19:14;;;;;;;912.47;825.10;;;26.80;99.90;;;;;;5095131;28;20054;-67
2023/08/23 00:21:41;;;;;;;949.28;858.13;;;26.80;99.90;;;;;;5095910;28;20021;-67
2023/08/23 00:24:07;;;;;;;991.13;896.35;;;26.80;99.90;;;;;;5095819;28;20024;-68
2023/08/23 00:26:34;;;;;;;957.10;865.92;;;26.80;99.90;;;;;;5095936;28;20095;-67
2023/08/23 00:29:00;;;;;;;966.95;874.10;;;26.80;99.90;;;;;;5095744;28;20119;-68
2023/08/23 00:31:27;;;;;;;1004.45;909.08;;;26.90;99.90;;;;;;5095926;28;20012;-67
2023/08/23 00:33:53;;;;;;;1076.18;974.25;;;27.00;99.90;;;;;;5095643;28;20028;-67
2023/08/23 00:36:20;;;;;;;1053.95;952.88;;;27.10;99.90;;;;;;5095451;28;20053;-67
2023/08/23 00:38:46;;;;;;;1116.95;999.90;;;27.10;99.90;;;;;;5095720;28;20111;-68
2023/08/23 00:41:13;;;;;;;1090.60;987.47;;;27.20;99.90;;;;;;5095519;28;20038;-67
2023/08/23 00:43:39;;;;;;;1106.90;998.58;;;27.20;99.90;;;;;;5095679;28;20066;-68
2023/08/23 00:46:06;;;;;;;1033.18;932.75;;;27.30;99.90;;;;;;5095628;28;20020;-67
2023/08/23 00:48:33;;;;;;;997.63;901.60;;;27.40;99.90;;;;;;5095566;28;20057;-70
2023/08/23 00:51:00;;;;;;;998.13;902.58;;;27.50;99.90;;;;;;5093064;28;20107;-69
2023/08/23 00:53:27;;;;;;;1034.93;936.38;;;27.50;99.90;;;;;;5084019;28;20107;-67
2023/08/23 00:55:54;;;;;;;1012.17;914.65;;;27.60;99.90;;;;;;5075328;28;20021;-67
2023/08/23 00:58:22;;;;;;;1002.75;907.15;;;27.60;99.90;;;;;;5075093;28;20016;-68
2023/08/23 01:00:49;;;;;;;988.20;893.38;;;27.70;99.90;;;;;;5075057;28;20103;-68
2023/08/23 01:03:16;;;;;;;973.08;880.03;;;27.80;99.90;;;;;;5076552;28;20016;-68
2023/08/23 01:06:22;;;;;;;969.15;876.38;;;27.80;99.90;;;;;;5074931;28;20024;-68
2023/08/23 01:08:57;;;;;;;1001.00;904.67;;;27.90;99.90;;;;;;5064429;28;20078;-67
2023/08/23 01:11:35;;;;;;;1232.90;999.90;;;27.90;99.90;;;;;;5079736;28;20028;-67
2023/08/23 01:14:14;;;;;;;1086.20;980.95;;;28.00;99.90;;;;;;5074627;28;20456;-69
2023/08/23 01:16:43;;;;;;;1268.70;999.90;;;28.10;99.90;;;;;;5074699;28;20025;-68
2023/08/23 01:19:19;;;;;;;1305.43;999.90;;;28.10;99.90;;;;;;5074667;28;20530;-68
2023/08/23 01:21:50;;;;;;;1291.32;999.90;;;28.20;99.90;;;;;;5074565;28;20021;-67
2023/08/23 01:24:17;;;;;;;1281.53;999.90;;;28.20;99.90;;;;;;5074623;28;20024;-67
2023/08/23 01:26:44;;;;;;;1192.47;999.90;;;28.20;99.90;;;;;;5074745;28;20511;-68
2023/08/23 01:29:10;;;;;;;1284.68;999.90;;;28.20;99.90;;;;;;5083205;28;20029;-67
2023/08/23 01:31:42;;;;;;;1318.82;999.90;;;28.30;99.90;;;;;;5084600;28;20020;-67
2023/08/23 01:34:15;;;;;;;1338.22;999.90;;;28.40;99.90;;;;;;5094555;28;20495;-67
2023/08/23 01:36:43;;;;;;;1277.63;999.90;;;28.50;99.90;;;;;;5074890;28;20477;-67
2023/08/23 01:39:10;;;;;;;1306.50;999.90;;;28.50;99.90;;;;;;5074357;28;20020;-67
2023/08/23 01:41:37;;;;;;;1284.25;999.90;;;28.60;99.90;;;;;;5090204;28;20028;-67
2023/08/23 01:44:05;;;;;;;1289.50;999.90;;;28.70;99.90;;;;;;5094376;28;20016;-67
2023/08/23 01:46:33;;;;;;;1282.43;999.90;;;28.80;99.90;;;;;;5094409;28;20028;-68
2023/08/23 01:48:59;;;;;;;1299.45;999.90;;;28.80;99.90;;;;;;5094293;28;20020;-67
2023/08/23 01:51:26;;;;;;;1316.20;999.90;;;28.80;99.90;;;;;;5094413;28;20020;-67
2023/08/23 01:53:52;;;;;;;1286.38;999.90;;;28.90;99.90;;;;;;5094503;28;20438;-67
2023/08/23 01:56:19;;;;;;;1282.07;999.90;;;29.00;99.90;;;;;;5063153;28;20139;-67
2023/08/23 01:58:46;;;;;;;1302.90;999.90;;;29.10;99.90;;;;;;5073934;28;20103;-67
2023/08/23 02:01:12;;;;;;;1206.25;999.90;;;29.20;99.90;;;;;;5073732;28;20099;-68
2023/08/23 02:03:39;;;;;;;1305.10;999.90;;;29.30;99.90;;;;;;5073800;28;20385;-68
2023/08/23 02:06:05;;;;;;;1278.07;999.90;;;29.30;99.90;;;;;;5073949;28;20457;-67
2023/08/23 02:08:32;;;;;;;1277.55;999.90;;;29.30;99.90;;;;;;5073786;28;20063;-67
2023/08/23 02:10:59;;;;;;;1295.85;999.90;;;29.30;99.90;;;;;;5077948;28;20016;-67
2023/08/23 02:13:25;;;;;;;1344.45;999.90;;;29.40;99.90;;;;;;5093922;28;20085;-67
2023/08/23 02:15:52;;;;;;;1379.00;999.90;;;29.40;99.90;;;;;;5093856;28;20477;-68
2023/08/23 02:18:19;;;;;;;1352.05;999.90;;;29.40;99.90;;;;;;5093970;28;20426;-64
2023/08/23 02:20:46;;;;;;;1340.75;999.90;;;29.40;99.90;;;;;;5093107;28;20066;-68
2023/08/23 02:23:12;;;;;;;1348.35;999.90;;;29.50;99.90;;;;;;5093286;28;20016;-66
2023/08/23 02:25:41;;;;;;;1354.05;999.90;;;29.60;99.90;;;;;;5093815;28;20028;-66
2023/08/23 02:28:07;;;;;;;1315.85;999.90;;;29.60;99.90;;;;;;5093701;28;20031;-68
2023/08/23 02:30:34;;;;;;;1310.70;999.90;;;29.70;99.90;;;;;;5093772;28;20479;-69
2023/08/23 02:33:00;;;;;;;1278.60;999.90;;;29.70;99.90;;;;;;5093748;28;20034;-70
2023/08/23 02:35:27;;;;;;;1296.03;999.90;;;29.70;99.90;;;;;;5093428;28;20027;-67
2023/08/23 02:37:54;;;;;;;1313.35;999.90;;;29.70;99.90;;;;;;5093522;28;20105;-68
2023/08/23 02:40:21;;;;;;;1290.10;999.90;;;29.80;99.90;;;;;;5093618;28;20105;-66
2023/08/23 02:42:47;;;;;;;1283.45;999.90;;;29.90;99.90;;;;;;5093007;28;20153;-68
2023/08/23 02:45:14;;;;;;;1277.63;999.90;;;29.90;99.90;;;;;;5093564;28;20016;-69
2023/08/23 02:47:41;;;;;;;1294.05;999.90;;;29.90;99.90;;;;;;5093512;28;20052;-68
2023/08/23 02:50:07;;;;;;;1255.68;999.90;;;29.90;99.90;;;;;;5093365;28;20498;-68
2023/08/23 02:52:34;;;;;;;1276.13;999.90;;;29.80;99.90;;;;;;5093533;28;20026;-68
2023/08/23 02:55:01;;;;;;;1281.25;999.90;;;29.90;99.90;;;;;;5093386;28;20447;-68
2023/08/23 02:57:27;;;;;;;1276.15;999.90;;;30.00;99.90;;;;;;5079880;28;20021;-68
2023/08/23 02:59:54;;;;;;;1278.85;999.90;;;30.10;99.90;;;;;;5073529;28;20024;-68
2023/08/23 03:02:20;;;;;;;1283.00;999.90;;;30.10;99.90;;;;;;5073175;28;20524;-68
2023/08/23 03:04:47;;;;;;;1306.28;999.90;;;30.20;99.90;;;;;;5074009;28;20032;-68
2023/08/23 03:07:13;;;;;;;1309.60;999.90;;;30.20;99.90;;;;;;5093284;28;20028;-69
2023/08/23 03:09:40;;;;;;;1304.28;999.90;;;30.20;99.90;;;;;;5093289;28;20024;-68
2023/08/23 03:12:06;;;;;;;1305.53;999.90;;;30.20;99.90;;;;;;5093164;28;20055;-68
2023/08/23 03:14:33;;;;;;;1267.40;999.90;;;30.30;99.90;;;;;;5093249;28;20054;-69
2023/08/23 03:17:00;;;;;;;1311.90;999.90;;;30.30;99.90;;;;;;5077807;28;20021;-68
2023/08/23 03:19:26;;;;;;;1357.35;999.90;;;30.40;99.90;;;;;;5072802;28;20016;-70
2023/08/23 03:21:53;;;;;;;1357.20;999.90;;;30.50;99.90;;;;;;5072915;28;20183;-71
2023/08/23 03:24:19;;;;;;;1314.32;999.90;;;30.50;99.90;;;;;;5072913;28;20441;-66
2023/08/23 03:26:46;;;;;;;1345.63;999.90;;;30.50;99.90;;;;;;5072712;28;20020;-68
2023/08/23 03:29:13;;;;;;;1387.07;999.90;;;30.40;99.90;;;;;;5072972;28;20024;-66
2023/08/23 03:31:39;;;;;;;1349.70;999.90;;;30.50;99.90;;;;;;5072819;28;20021;-70
2023/08/23 03:34:06;;;;;;;1333.53;999.90;;;30.50;99.90;;;;;;5072794;28;20170;-67
2023/08/23 03:36:32;;;;;;;1364.40;999.90;;;30.60;99.90;;;;;;5072299;28;20021;-68
2023/08/23 03:38:59;;;;;;;1439.63;999.90;;;30.70;99.90;;;;;;5076166;28;20028;-71
2023/08/23 03:41:25;;;;;;;1421.93;999.90;;;30.70;99.90;;;;;;5080344;28;20017;-70
2023/08/23 03:43:52;;;;;;;1494.75;999.90;;;30.70;99.90;;;;;;5072498;28;20377;-68
2023/08/23 03:46:23;;;;;;;1447.20;999.90;;;30.60;99.90;;;;;;5072593;28;20051;-67
2023/08/23 03:48:50;;;;;;;1433.32;999.90;;;30.60;99.90;;;;;;5072632;28;20064;-66
2023/08/23 03:51:16;;;;;;;1431.32;999.90;;;30.70;99.90;;;;;;5072840;28;20028;-65
2023/08/23 03:53:43;;;;;;;1294.72;999.90;;;30.70;99.90;;;;;;5073455;28;20021;-70
2023/08/23 03:56:10;;;;;;;1339.30;999.90;;;30.80;99.90;;;;;;5076223;28;20123;-67
2023/08/23 03:58:36;;;;;;;1344.15;999.90;;;30.80;99.90;;;;;;5075898;28;20529;-68
2023/08/23 04:01:03;;;;;;;1347.97;999.90;;;30.90;99.90;;;;;;5076164;28;20020;-67
2023/08/23 04:03:30;;;;;;;1479.47;999.90;;;31.00;99.90;;;;;;5075939;28;20047;-66
2023/08/23 04:05:56;;;;;;;1363.93;999.90;;;31.10;99.90;;;;;;5075959;28;20021;-70
2023/08/23 04:08:23;;;;;;;1298.70;999.90;;;31.30;99.90;;;;;;5076008;28;20078;-68
2023/08/23 04:10:50;;;;;;;1362.22;999.90;;;31.30;99.90;;;;;;5075833;28;20020;-70
2023/08/23 04:13:17;;;;;;;1355.50;999.90;;;31.40;99.90;;;;;;5075667;28;20151;-69
2023/08/23 04:15:44;;;;;;;1369.07;999.90;;;31.40;99.90;;;;;;5075865;28;20159;-67
2023/08/23 04:18:11;;;;;;;1398.07;999.90;;;31.40;99.90;;;;;;5075722;28;20102;-68
2023/08/23 04:20:38;;;;;;;1491.50;999.90;;;31.50;99.90;;;;;;5075547;28;20099;-69
2023/08/23 04:23:05;;;;;;;1510.72;999.90;;;31.50;99.90;;;;;;5079507;28;20020;-69
2023/08/23 04:25:32;;;;;;;1504.32;999.90;;;31.60;99.90;;;;;;5095684;28;20477;-72
2023/08/23 04:27:58;;;;;;;1510.53;999.90;;;31.60;99.90;;;;;;5091970;28;20114;-67
2023/08/23 04:30:25;;;;;;;1516.57;999.90;;;31.60;99.90;;;;;;5090972;28;20024;-68
2023/08/23 04:32:52;;;;;;;1516.07;999.90;;;31.60;99.90;;;;;;5096288;28;20046;-65
2023/08/23 04:35:18;;;;;;;1474.55;999.90;;;31.70;99.90;;;;;;5095962;28;20084;-67
2023/08/23 04:37:45;;;;;;;1448.60;999.90;;;31.70;99.90;;;;;;5095413;28;20470;-67
2023/08/23 04:40:11;;;;;;;1401.45;999.90;;;31.80;99.90;;;;;;5095585;28;20020;-67
2023/08/23 04:42:39;;;;;;;1365.00;999.90;;;31.90;99.90;;;;;;5095722;28;20016;-67
2023/08/23 04:45:06;;;;;;;1430.03;999.90;;;31.90;99.90;;;;;;5096121;28;20024;-66
2023/08/23 04:47:32;;;;;;;969.17;877.03;;;32.00;99.90;;;;;;5095958;28;20024;-67
2023/08/23 04:49:59;;;;;;;1035.57;937.53;;;32.00;99.90;;;;;;5093648;28;20449;-69
2023/08/23 04:52:27;;;;;;;1030.25;932.88;;;32.10;99.90;;;;;;5081457;28;20086;-70
2023/08/23 04:54:54;;;;;;;999.97;904.35;;;32.00;99.90;;;;;;5085454;28;20033;-69
2023/08/23 04:57:20;;;;;;;1048.10;948.85;;;32.00;99.90;;;;;;5086632;28;20465;-69
2023/08/23 04:59:47;;;;;;;1035.10;936.90;;;32.00;99.90;;;;;;5086696;28;20021;-68
2023/08/23 05:02:13;;;;;;;1004.60;908.97;;;32.10;99.90;;;;;;5083643;28;20043;-67
2023/08/23 05:04:40;;;;;;;1016.75;919.97;;;32.10;99.90;;;;;;5086252;28;20379;-68
2023/08/23 05:07:07;;;;;;;999.42;903.88;;;32.10;99.90;;;;;;5095285;28;20484;-67
2023/08/23 05:09:33;;;;;;;1007.78;912.10;;;32.20;99.90;;;;;;5095232;28;20030;-68
2023/08/23 05:12:00;;;;;;;978.05;885.22;;;32.20;99.90;;;;;;5095049;28;20024;-68
2023/08/23 05:14:26;;;;;;;929.35;841.50;;;32.20;99.90;;;;;;5095286;28;20196;-68
2023/08/23 05:16:53;;;;;;;899.53;815.30;;;32.30;99.90;;;;;;5094455;28;20552;-68
2023/08/23 05:19:19;;;;;;;926.97;839.33;;;32.30;99.90;;;;;;5094844;28;20031;-67
2023/08/23 05:21:46;;;;;;;929.78;841.78;;;32.30;99.90;;;;;;5094791;28;20498;-71
2023/08/23 05:24:13;;;;;;;896.70;812.42;;;32.30;99.90;;;;;;5093130;28;20048;-69
2023/08/23 05:26:39;;;;;;;900.85;816.08;;;32.40;99.90;;;;;;5085294;28;20012;-67
2023/08/23 05:29:06;;;;;;;916.85;830.42;;;32.50;99.90;;;;;;5073897;28;20013;-69
2023/08/23 05:31:32;;;;;;;929.58;841.72;;;32.50;99.90;;;;;;5074697;28;20013;-69
2023/08/23 05:33:59;;;;;;;949.78;858.83;;;32.50;99.90;;;;;;5074155;28;20013;-67
2023/08/23 05:36:25;;;;;;;899.60;814.33;;;32.50;99.90;;;;;;5074042;28;20377;-68
2023/08/23 05:38:52;;;;;;;918.97;830.78;;;32.50;99.90;;;;;;5074003;28;20025;-68
2023/08/23 05:41:18;;;;;;;889.50;805.55;;;32.60;99.90;;;;;;5074028;28;20154;-67
2023/08/23 05:43:45;;;;;;;851.45;771.70;;;32.60;99.90;;;;;;5084684;28;20024;-67
2023/08/23 05:46:11;;;;;;;846.08;766.83;;;32.50;99.90;;;;;;5083603;28;20487;-67
2023/08/23 05:48:38;;;;;;;875.70;793.03;;;32.50;99.90;;;;;;5083055;28;20357;-65
2023/08/23 05:51:05;;;;;;;840.80;761.70;;;32.40;99.90;;;;;;5083711;28;20028;-68
2023/08/23 05:53:32;;;;;;;1024.43;927.97;;;32.40;99.90;;;;;;5094411;28;20072;-66
2023/08/23 05:55:59;;;;;;;807.80;731.58;;;32.40;99.90;;;;;;5091752;28;20043;-66
2023/08/23 05:58:25;;;;;;;802.85;727.22;;;32.40;99.90;;;;;;5082662;28;20027;-68
2023/08/23 06:00:55;;;;;;;798.63;724.13;;;32.50;99.90;;;;;;5073813;28;20020;-66
2023/08/23 06:03:21;;;;;;;847.97;768.30;;;32.50;99.90;;;;;;5090703;28;20043;-69
2023/08/23 06:05:54;;;;;;;1114.03;999.25;;;32.50;99.90;;;;;;5093218;28;20028;-65
2023/08/23 06:08:21;;;;;;;972.97;880.10;;;32.50;99.90;;;;;;5094029;28;20077;-64
2023/08/23 06:10:48;;;;;;;947.17;857.13;;;32.50;99.90;;;;;;5094276;28;20522;-66
2023/08/23 06:13:15;;;;;;;1016.45;917.90;;;32.50;99.90;;;;;;5093710;28;20416;-68
2023/08/23 06:15:42;;;;;;;1141.47;999.90;;;32.50;99.90;;;;;;5093508;28;20024;-64
2023/08/23 06:18:08;;;;;;;1173.35;999.90;;;32.50;99.90;;;;;;5093297;28;20013;-66
2023/08/23 06:20:35;;;;;;;1103.60;996.90;;;32.50;99.90;;;;;;5093683;28;20028;-64
2023/08/23 06:23:02;;;;;;;1138.95;999.90;;;32.50;99.90;;;;;;5093693;28;20040;-66
2023/08/23 06:25:29;;;;;;;1158.13;999.90;;;32.50;99.90;;;;;;5093713;28;20461;-63
2023/08/23 06:27:55;;;;;;;1119.50;999.90;;;32.50;99.90;;;;;;5093524;28;20035;-65
2023/08/23 06:30:22;;;;;;;1118.07;999.90;;;32.50;99.90;;;;;;5081498;28;20473;-64
2023/08/23 06:32:49;;;;;;;1136.90;999.90;;;32.40;99.90;;;;;;5093635;28;20550;-66
2023/08/23 06:35:17;;;;;;;1148.13;999.90;;;32.40;99.90;;;;;;5093558;28;20024;-66
2023/08/23 06:37:47;;;;;;;1119.05;999.90;;;32.40;99.90;;;;;;5089259;28;20454;-65
2023/08/23 06:40:14;;;;;;;1083.93;980.88;;;32.40;99.90;;;;;;5084385;28;20028;-65
2023/08/23 06:42:40;;;;;;;1105.57;999.42;;;32.30;99.90;;;;;;5085964;28;20020;-65
2023/08/23 06:45:09;;;;;;;1084.03;980.58;;;32.30;99.90;;;;;;5081509;28;20017;-66
2023/08/23 06:47:38;;;;;;;1105.13;997.67;;;32.30;99.90;;;;;;5080421;28;20020;-66
2023/08/23 06:50:05;;;;;;;1136.43;999.90;;;32.30;99.90;;;;;;5087934;28;20024;-65
2023/08/23 06:52:32;;;;;;;1141.28;999.90;;;32.30;99.90;;;;;;5089265;28;20020;-65
2023/08/23 06:54:58;;;;;;;1143.85;999.90;;;32.40;99.90;;;;;;5082307;28;20035;-66
2023/08/23 06:57:28;;;;;;;1088.85;984.97;;;32.50;99.90;;;;;;5087063;28;20020;-66
2023/08/23 06:59:57;;;;;;;1115.78;999.90;;;32.50;99.90;;;;;;5076723;28;20036;-66
2023/08/23 07:02:25;;;;;;;1128.20;999.90;;;32.60;99.90;;;;;;5078740;28;20021;-63
2023/08/23 07:04:52;;;;;;;1050.40;950.30;;;32.60;99.90;;;;;;5087617;28;20027;-64
2023/08/23 07:07:20;;;;;;;1094.03;989.60;;;32.60;99.90;;;;;;5085490;28;20404;-67
2023/08/23 07:09:47;;;;;;;1105.68;999.90;;;32.60;99.90;;;;;;5081342;28;20028;-63
2023/08/23 07:12:14;;;;;;;1046.85;946.95;;;32.60;99.90;;;;;;5092916;28;20016;-64
2023/08/23 07:14:40;;;;;;;1097.80;993.58;;;32.60;99.90;;;;;;5082943;28;20031;-66
2023/08/23 07:17:07;;;;;;;1128.95;999.90;;;32.60;99.90;;;;;;5079794;28;20031;-68
2023/08/23 07:19:34;;;;;;;1149.97;999.90;;;32.60;99.90;;;;;;5072709;28;20123;-68
2023/08/23 07:22:01;;;;;;;1130.35;999.90;;;32.60;99.90;;;;;;5089064;28;20035;-68
2023/08/23 07:24:27;;;;;;;1127.75;999.90;;;32.60;99.90;;;;;;5092900;28;20074;-66
2023/08/23 07:26:55;;;;;;;1089.13;985.20;;;32.70;99.90;;;;;;5092775;28;20016;-68
2023/08/23 07:29:21;;;;;;;1033.57;934.90;;;32.60;99.90;;;;;;5096802;28;20020;-64
2023/08/23 07:31:48;;;;;;;1057.38;956.70;;;32.60;99.90;;;;;;5096995;28;20107;-63
2023/08/23 07:34:15;;;;;;;1035.55;937.40;;;32.60;99.90;;;;;;5096637;28;20140;-66
2023/08/23 07:36:42;;;;;;;1057.25;956.92;;;32.60;99.90;;;;;;5097071;28;20443;-66
2023/08/23 07:39:08;;;;;;;1012.10;916.10;;;32.60;99.90;;;;;;5096868;28;20055;-67
2023/08/23 07:41:35;;;;;;;977.35;884.65;;;32.60;99.90;;;;;;5096658;28;20277;-64
2023/08/23 07:44:01;;;;;;;983.25;889.60;;;32.50;99.90;;;;;;5096756;28;20020;-68
2023/08/23 07:46:28;;;;;;;944.28;854.45;;;32.50;99.40;;;;;;5096760;28;20024;-65
2023/08/23 07:48:54;;;;;;;937.90;848.75;;;32.50;99.90;;;;;;5096523;28;20389;-66
2023/08/23 07:51:21;;;;;;;994.63;900.17;;;32.60;99.70;;;;;;5096572;28;20016;-65
2023/08/23 07:53:48;;;;;;;1003.60;907.35;;;32.60;99.40;;;;;;5094224;28;20488;-68
2023/08/23 07:56:14;;;;;;;999.58;904.03;;;32.60;99.90;;;;;;5085070;28;20021;-64
2023/08/23 07:58:41;;;;;;;1029.07;930.53;;;32.60;99.90;;;;;;5076231;28;20024;-66
2023/08/23 08:01:08;;;;;;;1036.07;936.97;;;32.60;99.90;;;;;;5076008;28;20021;-64
2023/08/23 08:03:34;;;;;;;1008.88;912.40;;;32.60;99.90;;;;;;5076181;28;20027;-65
2023/08/23 08:06:01;;;;;;;996.17;900.60;;;32.70;99.90;;;;;;5076676;28;20621;-65
2023/08/23 08:08:27;;;;;;;790.38;715.22;;;32.70;99.90;;;;;;5076612;28;20029;-66
2023/08/23 08:10:54;;;;;;;990.42;895.67;;;32.70;99.90;;;;;;5087030;28;20088;-66
2023/08/23 08:13:21;;;;;;;892.97;808.70;;;32.80;99.90;;;;;;5088401;28;20043;-66
2023/08/23 08:15:47;;;;;;;887.80;804.15;;;32.80;99.10;;;;;;5076009;28;20073;-66
2023/08/23 08:18:14;;;;;;;937.53;848.88;;;32.80;99.50;;;;;;5089158;28;20028;-66
2023/08/23 08:20:42;;;;;;;916.50;830.03;;;32.80;99.90;;;;;;5095239;28;20027;-66
2023/08/23 08:23:09;;;;;;;875.50;792.53;;;32.80;99.90;;;;;;5091056;28;20144;-66
2023/08/23 08:25:36;;;;;;;838.70;760.13;;;32.80;99.90;;;;;;5087446;28;20025;-66
2023/08/23 08:28:03;;;;;;;886.35;802.97;;;32.70;99.90;;;;;;5092518;28;20024;-66
2023/08/23 08:30:29;;;;;;;927.45;839.72;;;32.60;99.90;;;;;;5095398;28;20043;-66
2023/08/23 08:32:56;;;;;;;891.67;807.67;;;32.70;99.90;;;;;;5095150;28;20035;-65
2023/08/23 08:35:22;;;;;;;881.53;798.35;;;32.70;99.90;;;;;;5096146;28;20078;-65
2023/08/23 08:37:49;;;;;;;907.13;821.30;;;32.70;99.90;;;;;;5096062;28;20127;-66
2023/08/23 08:40:16;;;;;;;935.58;847.10;;;32.70;99.90;;;;;;5095985;28;20422;-64
2023/08/23 08:42:46;;;;;;;911.10;825.33;;;32.60;99.90;;;;;;5095968;28;20376;-67
2023/08/23 08:45:13;;;;;;;868.35;786.55;;;32.70;99.90;;;;;;5089655;28;20481;-64
2023/08/23 08:47:41;;;;;;;967.97;875.60;;;32.60;99.90;;;;;;5080009;28;20028;-66
2023/08/23 08:50:08;;;;;;;966.38;874.35;;;32.70;99.90;;;;;;5076296;28;20472;-67
2023/08/23 08:52:37;;;;;;;965.28;873.60;;;32.60;99.90;;;;;;5059374;28;20392;-66
2023/08/23 08:55:04;;;;;;;959.15;867.70;;;32.60;99.90;;;;;;5068570;28;20408;-68
2023/08/23 08:57:32;;;;;;;949.58;859.20;;;32.60;99.90;;;;;;5089301;28;20020;-65
2023/08/23 08:59:59;;;;;;;1056.38;955.47;;;32.60;99.90;;;;;;5084696;28;20019;-65
2023/08/23 09:02:28;;;;;;;1168.78;999.90;;;32.50;99.90;;;;;;5086388;28;20008;-67
2023/08/23 09:04:56;;;;;;;1132.72;999.90;;;32.50;99.90;;;;;;5085043;28;20024;-67
2023/08/23 09:07:22;;;;;;;1134.45;999.90;;;32.50;99.90;;;;;;5086192;28;20032;-65
2023/08/23 09:09:50;;;;;;;1160.82;999.90;;;32.50;99.90;;;;;;5084483;28;20021;-67
2023/08/23 09:12:17;;;;;;;1113.80;999.55;;;32.50;99.90;;;;;;5087154;28;20039;-69
2023/08/23 09:14:51;;;;;;;1149.60;999.90;;;32.40;99.90;;;;;;5090638;28;20466;-68
2023/08/23 09:17:25;;;;;;;1155.78;999.90;;;32.40;99.90;;;;;;5084718;28;20025;-70
2023/08/23 09:19:52;;;;;;;1167.22;999.90;;;32.40;99.90;;;;;;5084852;28;20476;-67
2023/08/23 09:22:21;;;;;;;1158.18;999.90;;;32.30;99.90;;;;;;5087656;28;20017;-67
2023/08/23 09:24:47;;;;;;;1160.00;999.90;;;32.20;99.90;;;;;;5083519;28;20021;-66
2023/08/23 09:27:14;;;;;;;1189.93;999.90;;;32.20;99.90;;;;;;5085356;28;20055;-66
2023/08/23 09:29:41;;;;;;;1202.63;999.90;;;32.20;99.90;;;;;;5083879;28;20382;-67
2023/08/23 09:32:08;;;;;;;1157.32;999.90;;;32.10;99.90;;;;;;5086631;28;20107;-65
2023/08/23 09:34:34;;;;;;;1383.75;999.90;;;32.10;99.90;;;;;;5086864;28;20353;-66
2023/08/23 09:37:10;;;;;;;1379.18;999.90;;;32.10;99.90;;;;;;5082683;28;20127;-67
2023/08/23 09:39:36;;;;;;;1370.70;999.90;;;32.20;99.90;;;;;;5092140;28;20103;-67
2023/08/23 09:42:05;;;;;;;1375.95;999.90;;;32.20;99.90;;;;;;5094417;28;20421;-67
2023/08/23 09:44:40;;;;;;;1365.85;999.90;;;32.20;99.90;;;;;;5089028;28;20466;-68
2023/08/23 09:47:14;;;;;;;1342.78;999.90;;;32.20;99.90;;;;;;5082717;28;20032;-68
2023/08/23 09:49:43;;;;;;;1344.80;999.90;;;32.10;99.90;;;;;;5082855;28;20477;-68
2023/08/23 09:52:11;;;;;;;1346.20;999.90;;;32.10;99.90;;;;;;5091610;28;20062;-67
2023/08/23 09:54:42;;;;;;;1340.38;999.90;;;32.10;99.90;;;;;;5085067;28;20113;-67
2023/08/23 09:57:09;;;;;;;1326.55;999.90;;;32.10;99.90;;;;;;5085034;28;20407;-67
2023/08/23 09:59:36;;;;;;;1332.82;999.90;;;32.10;99.90;;;;;;5086533;28;20019;-68
2023/08/23 10:02:08;;;;;;;1321.45;999.90;;;32.00;99.90;;;;;;5085936;28;20044;-66
2023/08/23 10:04:36;;;;;;;1301.88;999.90;;;32.00;99.90;;;;;;5087281;28;20408;-68
2023/08/23 10:07:03;;;;;;;1332.30;999.90;;;31.90;99.90;;;;;;5086697;28;20035;-67
2023/08/23 10:09:30;;;;;;;1340.22;999.90;;;32.00;99.90;;;;;;5084739;28;20362;-67
2023/08/23 10:11:57;;;;;;;1338.13;999.90;;;32.00;99.90;;;;;;5086177;28;20031;-65
2023/08/23 10:14:25;;;;;;;1335.00;999.90;;;32.00;99.90;;;;;;5086401;28;20217;-67
2023/08/23 10:16:52;;;;;;;1303.60;999.90;;;32.10;99.90;;;;;;5087459;28;20008;-68
2023/08/23 10:19:19;;;;;;;1256.50;999.90;;;32.10;99.90;;;;;;5085239;28;20028;-67
2023/08/23 10:21:46;;;;;;;1258.85;999.90;;;32.10;99.90;;;;;;5083436;28;20073;-68
2023/08/23 10:24:13;;;;;;;1215.75;999.90;;;32.00;99.90;;;;;;5085300;28;20477;-67
2023/08/23 10:26:49;;;;;;;1244.75;999.90;;;31.90;99.90;;;;;;5084262;28;20066;-69
2023/08/23 10:29:26;;;;;;;1279.70;999.90;;;31.90;99.90;;;;;;5084137;28;20043;-69
2023/08/23 10:31:54;;;;;;;1193.75;999.90;;;31.90;99.90;;;;;;5084143;28;20476;-68
2023/08/23 10:34:29;;;;;;;1160.22;999.90;;;31.90;99.90;;;;;;5084029;28;20074;-67
2023/08/23 10:36:56;;;;;;;1171.97;999.90;;;31.90;99.90;;;;;;5084117;28;20033;-68
2023/08/23 10:39:26;;;;;;;1106.30;999.20;;;31.90;99.90;;;;;;5084919;28;20066;-68
2023/08/23 10:41:55;;;;;;;1176.20;999.90;;;31.80;99.90;;;;;;5084362;28;20021;-66
2023/08/23 10:44:22;;;;;;;1286.93;999.90;;;31.70;99.90;;;;;;5088558;28;20016;-69
2023/08/23 10:46:51;;;;;;;1273.13;999.90;;;31.70;99.90;;;;;;5093431;28;20024;-66
2023/08/23 10:49:20;;;;;;;1293.75;999.90;;;31.70;99.90;;;;;;5093463;28;20035;-65
2023/08/23 10:51:47;;;;;;;1226.22;999.90;;;31.60;99.90;;;;;;5093284;28;20031;-68
2023/08/23 10:54:14;;;;;;;1075.65;970.95;;;31.60;99.90;;;;;;5088202;28;20038;-67
2023/08/23 10:56:42;;;;;;;1103.00;996.70;;;31.60;99.90;;;;;;5073406;28;20209;-69
2023/08/23 10:59:09;;;;;;;1111.30;999.90;;;31.50;99.90;;;;;;5072634;28;20017;-68
2023/08/23 11:01:38;;;;;;;1102.00;994.65;;;31.50;99.90;;;;;;5072613;28;20108;-68
2023/08/23 11:04:08;;;;;;;1086.63;980.42;;;31.50;99.90;;;;;;5076207;28;20673;-69
2023/08/23 11:06:36;;;;;;;1114.70;999.90;;;31.50;99.90;;;;;;5085403;28;20066;-65
2023/08/23 11:09:02;;;;;;;1054.72;950.97;;;31.40;99.90;;;;;;5076537;28;20028;-68
2023/08/23 11:11:29;;;;;;;980.42;885.10;;;31.40;99.90;;;;;;5076371;28;20035;-68
2023/08/23 11:13:57;;;;;;;945.28;853.47;;;31.30;99.90;;;;;;5076376;28;20055;-67
2023/08/23 11:16:24;;;;;;;983.97;888.17;;;31.30;99.90;;;;;;5076396;28;20086;-68
2023/08/23 11:18:51;;;;;;;920.58;831.58;;;31.20;99.90;;;;;;5086794;28;20388;-68
2023/08/23 11:21:18;;;;;;;1009.13;910.33;;;31.20;99.90;;;;;;5089033;28;20534;-67
2023/08/23 11:23:45;;;;;;;1048.20;946.72;;;31.20;99.90;;;;;;5085464;28;20032;-68
2023/08/23 11:26:11;;;;;;;1026.57;925.97;;;31.20;99.90;;;;;;5076933;28;20027;-69
2023/08/23 11:28:38;;;;;;;1021.60;920.83;;;31.10;99.90;;;;;;5076821;28;20089;-65
2023/08/23 11:31:06;;;;;;;1007.47;908.67;;;31.10;99.90;;;;;;5083652;28;20020;-67
2023/08/23 11:33:33;;;;;;;1027.03;925.95;;;31.00;99.90;;;;;;5086831;28;20391;-66
2023/08/23 11:36:01;;;;;;;1055.13;949.58;;;31.00;99.90;;;;;;5087959;28;20024;-69
2023/08/23 11:38:28;;;;;;;1082.93;976.88;;;31.00;99.90;;;;;;5088817;28;20044;-67
2023/08/23 11:40:57;;;;;;;1083.82;977.95;;;31.00;99.90;;;;;;5087485;28;20027;-70
2023/08/23 11:43:27;;;;;;;1076.57;970.78;;;30.90;99.90;;;;;;5088170;28;20211;-69
2023/08/23 11:45:54;;;;;;;1069.72;965.03;;;30.90;99.90;;;;;;5083537;28;20032;-68
2023/08/23 11:48:23;;;;;;;1093.25;985.30;;;30.80;99.90;;;;;;5079902;28;20025;-69
2023/08/23 11:50:50;;;;;;;1066.35;962.35;;;30.80;99.90;;;;;;5082264;28;20025;-70
2023/08/23 11:53:17;;;;;;;1062.13;957.85;;;30.80;99.90;;;;;;5058671;28;20488;-68
2023/08/23 11:55:44;;;;;;;1083.40;976.90;;;30.80;99.90;;;;;;5085158;28;20028;-69
2023/08/23 11:58:10;;;;;;;1047.30;945.75;;;30.70;99.90;;;;;;5079640;28;20021;-69
2023/08/23 12:00:38;;;;;;;1007.60;907.80;;;30.70;99.90;;;;;;5084880;28;20016;-69
2023/08/23 12:03:04;;;;;;;1019.25;919.70;;;30.70;99.90;;;;;;5088653;28;20020;-69